Time;durP1;ratioP1;P1;durP2;ratioP2;P2;SDS_P1;SDS_P2;PMS_P1;PMS_P2;Temp;Humidity;BMP_temperature;BMP_pressure;BME280_temperature;BME280_humidity;BME280_pressure;Samples;Min_cycle;Max_cycle;Signal;HPM_P1;HPM_P2
2022/10/12 04:30:52;;;;;;;;;15.33;15.00;;;;;;;;5768687;22;46404;-62
2022/10/12 04:33:17;;;;;;;;;19.00;15.33;;;;;;;;5037993;28;45475;-62
2022/10/12 04:35:42;;;;;;;;;14.00;13.00;;;;;;;;5029183;28;45270;-61
2022/10/12 04:38:08;;;;;;;;;13.00;13.00;;;;;;;;5035253;28;45444;-62
2022/10/12 04:40:33;;;;;;;;;17.33;15.00;;;;;;;;5032508;28;45865;-61
2022/10/12 04:42:58;;;;;;;;;16.00;13.00;;;;;;;;5037238;28;46324;-61
2022/10/12 04:45:23;;;;;;;;;20.33;16.00;;;;;;;;5037650;28;45304;-62
2022/10/12 04:47:48;;;;;;;;;15.67;15.00;;;;;;;;5027420;28;45488;-61
2022/10/12 04:50:14;;;;;;;;;15.33;14.67;;;;;;;;5023816;28;45407;-61
2022/10/12 04:52:39;;;;;;;;;16.33;13.67;;;;;;;;5031090;28;45383;-61
2022/10/12 04:55:05;;;;;;;;;17.67;14.33;;;;;;;;5035744;28;46380;-61
2022/10/12 04:57:30;;;;;;;;;14.33;13.00;;;;;;;;5036101;28;45385;-61
2022/10/12 04:59:55;;;;;;;;;15.00;12.67;;;;;;;;5036311;28;45604;-61
2022/10/12 05:02:20;;;;;;;;;16.00;14.33;;;;;;;;5037979;28;45439;-61
2022/10/12 05:04:45;;;;;;;;;14.67;13.33;;;;;;;;5030164;28;45403;-63
2022/10/12 05:07:11;;;;;;;;;17.33;11.33;;;;;;;;5036772;28;45421;-62
2022/10/12 05:09:36;;;;;;;;;18.33;13.67;;;;;;;;5031550;28;45335;-61
2022/10/12 05:12:01;;;;;;;;;15.00;12.67;;;;;;;;5037884;28;45653;-63
2022/10/12 05:14:26;;;;;;;;;23.33;15.33;;;;;;;;5036398;28;46074;-62
2022/10/12 05:16:51;;;;;;;;;14.00;11.00;;;;;;;;5036867;28;45595;-64
2022/10/12 05:19:17;;;;;;;;;10.67;10.67;;;;;;;;5037680;28;45285;-60
2022/10/12 05:21:42;;;;;;;;;17.33;14.00;;;;;;;;5037422;28;46969;-63
2022/10/12 05:24:07;;;;;;;;;12.33;12.33;;;;;;;;5025664;28;45626;-62
2022/10/12 05:26:32;;;;;;;;;17.33;13.67;;;;;;;;5035505;28;45261;-62
2022/10/12 05:28:57;;;;;;;;;10.00;10.00;;;;;;;;5032687;28;45438;-61
2022/10/12 05:31:23;;;;;;;;;14.00;13.00;;;;;;;;5034813;28;45680;-62
2022/10/12 05:33:48;;;;;;;;;17.00;13.33;;;;;;;;5032001;28;46101;-62
2022/10/12 05:36:13;;;;;;;;;18.33;14.00;;;;;;;;5029062;28;45766;-61
2022/10/12 05:38:38;;;;;;;;;18.00;13.67;;;;;;;;5038285;28;45841;-62
2022/10/12 05:41:04;;;;;;;;;12.67;12.67;;;;;;;;5036827;28;45414;-61
2022/10/12 05:43:29;;;;;;;;;14.33;12.00;;;;;;;;5028574;28;47111;-61
2022/10/12 05:45:54;;;;;;;;;14.00;12.00;;;;;;;;5037746;28;45259;-61
2022/10/12 05:48:19;;;;;;;;;15.00;14.00;;;;;;;;5027575;28;45525;-61
2022/10/12 05:50:45;;;;;;;;;18.00;14.33;;;;;;;;5012720;28;45427;-62
2022/10/12 05:53:10;;;;;;;;;17.67;14.00;;;;;;;;5035003;28;45365;-62
2022/10/12 05:55:35;;;;;;;;;17.00;15.00;;;;;;;;5035971;28;45549;-62
2022/10/12 05:58:00;;;;;;;;;21.33;15.33;;;;;;;;5021723;28;45418;-62
2022/10/12 06:00:26;;;;;;;;;16.00;14.00;;;;;;;;5037242;28;45509;-61
2022/10/12 06:02:51;;;;;;;;;20.67;15.33;;;;;;;;5038974;28;45544;-62
2022/10/12 06:05:16;;;;;;;;;13.00;13.00;;;;;;;;5034017;28;45511;-62
2022/10/12 06:07:41;;;;;;;;;17.67;15.00;;;;;;;;5041337;28;45419;-63
2022/10/12 06:10:07;;;;;;;;;15.33;13.00;;;;;;;;5040124;28;45616;-62
2022/10/12 06:12:33;;;;;;;;;16.33;15.33;;;;;;;;5039791;28;45578;-62
2022/10/12 06:14:58;;;;;;;;;15.00;13.33;;;;;;;;5040266;28;45423;-61
2022/10/12 06:17:23;;;;;;;;;17.33;14.00;;;;;;;;5041335;28;45438;-62
2022/10/12 06:19:48;;;;;;;;;18.00;16.67;;;;;;;;5040340;28;45457;-62
2022/10/12 06:22:14;;;;;;;;;14.33;13.00;;;;;;;;5039728;28;45498;-62
2022/10/12 06:24:39;;;;;;;;;16.00;14.00;;;;;;;;5040487;28;45451;-64
2022/10/12 06:27:04;;;;;;;;;15.33;14.33;;;;;;;;5038256;28;45379;-62
2022/10/12 06:29:29;;;;;;;;;19.00;16.00;;;;;;;;5023310;28;45460;-63
2022/10/12 06:31:54;;;;;;;;;17.00;15.00;;;;;;;;5037739;28;45497;-62
2022/10/12 06:34:20;;;;;;;;;19.67;16.33;;;;;;;;5040030;28;45605;-62
2022/10/12 06:36:45;;;;;;;;;20.67;18.33;;;;;;;;5048289;28;45352;-62
2022/10/12 06:39:11;;;;;;;;;18.33;18.33;;;;;;;;5051339;28;45315;-63
2022/10/12 06:41:37;;;;;;;;;21.33;17.33;;;;;;;;5049194;28;46206;-62
2022/10/12 06:44:02;;;;;;;;;17.67;14.00;;;;;;;;5044136;28;45382;-63
2022/10/12 06:46:27;;;;;;;;;16.33;14.33;;;;;;;;5042422;28;45331;-62
2022/10/12 06:48:52;;;;;;;;;21.67;18.00;;;;;;;;5054100;28;45784;-63
2022/10/12 06:51:18;;;;;;;;;18.33;16.33;;;;;;;;5044690;28;45535;-62
2022/10/12 06:53:43;;;;;;;;;18.00;18.00;;;;;;;;5043444;28;45355;-62
2022/10/12 06:56:09;;;;;;;;;22.00;17.00;;;;;;;;5028564;28;45558;-62
2022/10/12 06:58:34;;;;;;;;;24.00;17.67;;;;;;;;5039846;28;45444;-61
2022/10/12 07:01:04;;;;;;;;;20.67;19.67;;;;;;;;5040248;28;46202;-62
2022/10/12 07:03:29;;;;;;;;;19.67;18.33;;;;;;;;5039625;28;45461;-62
2022/10/12 07:05:54;;;;;;;;;27.33;24.67;;;;;;;;5039692;28;45402;-62
2022/10/12 07:08:19;;;;;;;;;7.67;4.00;;;;;;;;5014208;28;45317;-62
2022/10/12 07:10:45;;;;;;;;;20.33;17.33;;;;;;;;5039133;28;45521;-61
2022/10/12 07:13:10;;;;;;;;;23.33;20.00;;;;;;;;5030677;28;45406;-62
2022/10/12 07:15:35;;;;;;;;;23.67;21.33;;;;;;;;5039859;28;45301;-62
2022/10/12 07:18:00;;;;;;;;;33.67;25.67;;;;;;;;5032533;28;45287;-63
2022/10/12 07:20:25;;;;;;;;;28.00;26.33;;;;;;;;5025834;28;45285;-63
2022/10/12 07:22:51;;;;;;;;;26.33;25.00;;;;;;;;5029026;28;45658;-63
2022/10/12 07:25:16;;;;;;;;;26.33;22.33;;;;;;;;5028944;28;45296;-63
2022/10/12 07:27:42;;;;;;;;;28.67;23.67;;;;;;;;5030579;28;45379;-63
2022/10/12 07:30:07;;;;;;;;;26.00;22.00;;;;;;;;5039153;28;45631;-62
2022/10/12 07:32:32;;;;;;;;;30.67;26.00;;;;;;;;5039504;28;45403;-63
2022/10/12 07:34:58;;;;;;;;;24.67;23.33;;;;;;;;5038803;28;45360;-63
2022/10/12 07:37:23;;;;;;;;;24.00;21.67;;;;;;;;5039478;28;45430;-63
2022/10/12 07:39:48;;;;;;;;;26.00;22.67;;;;;;;;5038639;28;46263;-63
2022/10/12 07:42:13;;;;;;;;;20.00;18.00;;;;;;;;5018752;28;45544;-63
2022/10/12 07:44:39;;;;;;;;;25.00;25.00;;;;;;;;5036006;28;45543;-63
2022/10/12 07:47:04;;;;;;;;;26.67;20.00;;;;;;;;5033274;28;45305;-63
2022/10/12 07:49:29;;;;;;;;;24.67;23.33;;;;;;;;5017849;28;46418;-63
2022/10/12 07:51:56;;;;;;;;;24.67;23.67;;;;;;;;5015730;28;46479;-63
2022/10/12 07:54:21;;;;;;;;;26.00;24.33;;;;;;;;5036622;28;45457;-63
2022/10/12 07:56:46;;;;;;;;;21.67;20.33;;;;;;;;5036080;28;45372;-63
2022/10/12 07:59:11;;;;;;;;;30.67;25.67;;;;;;;;5036518;28;45694;-63
2022/10/12 08:01:37;;;;;;;;;24.33;23.00;;;;;;;;5034813;28;45519;-63
2022/10/12 08:04:02;;;;;;;;;23.00;18.33;;;;;;;;5030525;28;45550;-63
2022/10/12 08:06:29;;;;;;;;;27.00;21.67;;;;;;;;5034118;28;45584;-63
2022/10/12 08:08:54;;;;;;;;;27.00;25.00;;;;;;;;5036093;28;45389;-63
2022/10/12 08:11:20;;;;;;;;;34.00;25.67;;;;;;;;5033741;28;45403;-63
2022/10/12 08:13:45;;;;;;;;;26.00;24.33;;;;;;;;5038882;28;45359;-63
2022/10/12 08:16:12;;;;;;;;;28.67;23.67;;;;;;;;5019582;28;45427;-63
2022/10/12 08:18:37;;;;;;;;;26.33;23.00;;;;;;;;5039181;28;46038;-63
2022/10/12 08:21:03;;;;;;;;;27.33;24.67;;;;;;;;5038153;28;45361;-63
2022/10/12 08:23:29;;;;;;;;;29.67;25.00;;;;;;;;5037537;28;45296;-63
2022/10/12 08:25:55;;;;;;;;;24.67;24.67;;;;;;;;5034335;28;45547;-63
2022/10/12 08:28:20;;;;;;;;;25.67;24.00;;;;;;;;5030521;28;46127;-63
2022/10/12 08:30:45;;;;;;;;;23.00;22.67;;;;;;;;5025534;28;45457;-63
2022/10/12 08:33:12;;;;;;;;;22.67;22.67;;;;;;;;5031728;28;45437;-63
2022/10/12 08:35:38;;;;;;;;;32.67;26.33;;;;;;;;5031089;28;45971;-63
2022/10/12 08:38:03;;;;;;;;;24.33;24.00;;;;;;;;5013548;28;48063;-64
2022/10/12 08:40:30;;;;;;;;;27.00;24.00;;;;;;;;5030112;28;45501;-64
2022/10/12 08:43:02;;;;;;;;;31.00;26.00;;;;;;;;5034783;28;45629;-64
2022/10/12 08:45:30;;;;;;;;;28.33;24.00;;;;;;;;5025783;28;45632;-63
2022/10/12 08:48:18;;;;;;;;;27.00;26.00;;;;;;;;5026715;28;45477;-63
2022/10/12 08:50:51;;;;;;;;;28.00;26.67;;;;;;;;4988706;28;45586;-63
2022/10/12 08:53:29;;;;;;;;;28.00;24.00;;;;;;;;5027660;28;45396;-64
2022/10/12 08:55:55;;;;;;;;;27.33;26.67;;;;;;;;5030539;28;45374;-64
2022/10/12 08:58:23;;;;;;;;;26.33;22.33;;;;;;;;5025850;28;46348;-64
2022/10/12 09:00:54;;;;;;;;;26.67;26.33;;;;;;;;5036237;28;45438;-64
2022/10/12 09:03:28;;;;;;;;;27.67;22.33;;;;;;;;5032024;28;45324;-62
2022/10/12 09:06:00;;;;;;;;;23.67;22.67;;;;;;;;5026763;28;45531;-62
2022/10/12 09:08:37;;;;;;;;;27.00;21.00;;;;;;;;5027491;28;45430;-63
2022/10/12 09:11:22;;;;;;;;;24.33;23.33;;;;;;;;5030892;28;45366;-63
2022/10/12 09:13:53;;;;;;;;;29.67;25.67;;;;;;;;5037907;28;45447;-62
2022/10/12 09:16:22;;;;;;;;;28.33;22.67;;;;;;;;5031430;28;45696;-62
2022/10/12 09:18:50;;;;;;;;;26.33;22.67;;;;;;;;5037013;28;46166;-62
2022/10/12 09:21:16;;;;;;;;;28.33;26.33;;;;;;;;5031850;28;45451;-62
2022/10/12 09:23:43;;;;;;;;;30.67;25.00;;;;;;;;5035906;28;45482;-62
2022/10/12 09:26:15;;;;;;;;;26.67;23.67;;;;;;;;5031424;28;45738;-64
2022/10/12 09:29:01;;;;;;;;;27.67;25.33;;;;;;;;5027955;28;46186;-63
2022/10/12 09:31:38;;;;;;;;;22.67;22.67;;;;;;;;5035898;28;45491;-64
2022/10/12 09:34:05;;;;;;;;;30.33;26.67;;;;;;;;5013187;28;45369;-62
2022/10/12 09:36:32;;;;;;;;;24.33;23.33;;;;;;;;5035374;28;45555;-63
2022/10/12 09:38:59;;;;;;;;;24.00;23.00;;;;;;;;5030923;28;45249;-63
2022/10/12 09:41:33;;;;;;;;;29.00;24.67;;;;;;;;5034497;28;45432;-63
2022/10/12 09:43:59;;;;;;;;;25.67;21.67;;;;;;;;5034351;28;45490;-63
2022/10/12 09:46:36;;;;;;;;;25.00;24.00;;;;;;;;5033788;28;45394;-64
2022/10/12 09:49:01;;;;;;;;;24.67;21.67;;;;;;;;5033645;28;46382;-64
2022/10/12 09:51:29;;;;;;;;;23.33;22.33;;;;;;;;5032281;28;45368;-64
2022/10/12 09:53:57;;;;;;;;;26.67;26.67;;;;;;;;5031727;28;45450;-63
2022/10/12 09:56:25;;;;;;;;;23.67;22.00;;;;;;;;5030994;28;45385;-63
2022/10/12 09:59:01;;;;;;;;;25.00;22.00;;;;;;;;5033601;28;46882;-64
2022/10/12 10:01:31;;;;;;;;;23.67;21.33;;;;;;;;5031999;28;45933;-64
2022/10/12 10:04:21;;;;;;;;;22.67;21.00;;;;;;;;5033726;28;45187;-64
2022/10/12 10:06:46;;;;;;;;;27.00;23.00;;;;;;;;5034046;28;45696;-63
2022/10/12 10:09:32;;;;;;;;;23.67;22.00;;;;;;;;5030235;28;45528;-64
2022/10/12 10:12:10;;;;;;;;;25.00;20.67;;;;;;;;5034422;28;45604;-64
2022/10/12 10:14:36;;;;;;;;;19.33;18.33;;;;;;;;5032940;28;45468;-64
2022/10/12 10:17:01;;;;;;;;;19.67;19.67;;;;;;;;5036327;28;45507;-64
2022/10/12 10:19:26;;;;;;;;;21.67;21.67;;;;;;;;5035416;28;45364;-64
2022/10/12 10:21:53;;;;;;;;;21.00;20.00;;;;;;;;5036614;28;45327;-63
2022/10/12 10:24:20;;;;;;;;;24.67;22.33;;;;;;;;5036330;28;45419;-65
2022/10/12 10:27:04;;;;;;;;;21.33;21.00;;;;;;;;5035579;28;45775;-64
2022/10/12 10:29:38;;;;;;;;;19.67;19.67;;;;;;;;5034448;28;46218;-64
2022/10/12 10:32:22;;;;;;;;;26.67;20.67;;;;;;;;5020924;28;45406;-65
2022/10/12 10:34:47;;;;;;;;;23.67;20.67;;;;;;;;5022314;28;45617;-64
2022/10/12 10:37:15;;;;;;;;;26.00;20.33;;;;;;;;5023874;28;45646;-64
2022/10/12 10:39:45;;;;;;;;;25.67;21.67;;;;;;;;5025187;28;46386;-64
2022/10/12 10:42:18;;;;;;;;;19.00;18.00;;;;;;;;5028808;28;45617;-64
2022/10/12 10:44:51;;;;;;;;;21.67;20.00;;;;;;;;5032456;28;45439;-64
2022/10/12 10:47:16;;;;;;;;;24.33;20.00;;;;;;;;5032048;28;45544;-64
2022/10/12 10:49:43;;;;;;;;;19.00;18.00;;;;;;;;5039798;28;46769;-64
2022/10/12 10:52:22;;;;;;;;;22.00;19.00;;;;;;;;5040173;28;45348;-64
2022/10/12 10:54:48;;;;;;;;;16.67;16.67;;;;;;;;5040363;28;45449;-64
2022/10/12 10:57:18;;;;;;;;;22.33;20.00;;;;;;;;5040810;28;45424;-64
2022/10/12 10:59:43;;;;;;;;;21.00;20.00;;;;;;;;5039001;28;46402;-64
2022/10/12 11:02:13;;;;;;;;;21.33;18.33;;;;;;;;5040042;28;45486;-65
2022/10/12 11:04:42;;;;;;;;;18.50;15.50;;;;;;;;5040343;28;45364;-64
2022/10/12 11:07:21;;;;;;;;;17.67;16.00;;;;;;;;5040144;28;45457;-64
2022/10/12 11:09:50;;;;;;;;;17.00;16.67;;;;;;;;5021329;28;46878;-65
2022/10/12 11:12:22;;;;;;;;;17.67;17.67;;;;;;;;5040413;28;45425;-62
2022/10/12 11:14:49;;;;;;;;;21.67;18.33;;;;;;;;5037829;28;45417;-64
2022/10/12 11:17:28;;;;;;;;;15.00;15.00;;;;;;;;5037571;28;45336;-63
2022/10/12 11:19:56;;;;;;;;;24.00;20.67;;;;;;;;5027698;28;45675;-63
2022/10/12 11:22:26;;;;;;;;;16.00;15.00;;;;;;;;5039767;28;45293;-63
2022/10/12 11:25:02;;;;;;;;;14.00;12.33;;;;;;;;5038604;28;45455;-64
2022/10/12 11:27:31;;;;;;;;;17.00;16.00;;;;;;;;5022070;28;45268;-64
2022/10/12 11:29:59;;;;;;;;;20.33;17.33;;;;;;;;5039416;28;46309;-71
2022/10/12 11:32:30;;;;;;;;;19.33;19.00;;;;;;;;5037917;28;45165;-71
2022/10/12 11:34:58;;;;;;;;;17.00;17.00;;;;;;;;5038148;28;45429;-71
2022/10/12 11:37:32;;;;;;;;;16.00;14.00;;;;;;;;5039792;28;45479;-71
2022/10/12 11:39:58;;;;;;;;;12.33;11.67;;;;;;;;5031760;28;45317;-71
2022/10/12 11:42:31;;;;;;;;;12.00;12.00;;;;;;;;5039893;28;45309;-72
2022/10/12 11:44:59;;;;;;;;;14.67;11.33;;;;;;;;5035009;28;45505;-63
2022/10/12 11:47:24;;;;;;;;;9.00;7.33;;;;;;;;5039645;28;45456;-65
2022/10/12 11:49:54;;;;;;;;;8.00;6.67;;;;;;;;5033477;28;45344;-65
2022/10/12 11:52:20;;;;;;;;;13.00;12.67;;;;;;;;5039662;28;45478;-64
2022/10/12 11:55:03;;;;;;;;;18.00;13.00;;;;;;;;5039015;28;45790;-65
2022/10/12 11:57:32;;;;;;;;;14.33;11.00;;;;;;;;5039186;28;45494;-64
2022/10/12 12:00:18;;;;;;;;;14.67;11.00;;;;;;;;5038693;28;45493;-65
2022/10/12 12:02:47;;;;;;;;;11.67;10.00;;;;;;;;5031197;28;45451;-65
2022/10/12 12:05:14;;;;;;;;;12.33;11.00;;;;;;;;5032899;28;45421;-65
2022/10/12 12:07:49;;;;;;;;;12.33;10.00;;;;;;;;5038223;28;45446;-65
2022/10/12 12:10:24;;;;;;;;;10.67;9.33;;;;;;;;5033841;28;45400;-65
2022/10/12 12:13:17;;;;;;;;;13.33;10.67;;;;;;;;5036922;28;45621;-64
2022/10/12 12:15:51;;;;;;;;;12.67;11.00;;;;;;;;5034172;28;45611;-65
2022/10/12 12:18:27;;;;;;;;;12.33;11.00;;;;;;;;5049072;28;45359;-64
2022/10/12 12:20:59;;;;;;;;;14.00;11.00;;;;;;;;5044347;28;46128;-65
2022/10/12 12:23:31;;;;;;;;;12.33;8.00;;;;;;;;5032700;28;45210;-65
2022/10/12 12:26:17;;;;;;;;;9.67;8.33;;;;;;;;5029604;28;45547;-66
2022/10/12 12:28:44;;;;;;;;;15.67;13.00;;;;;;;;5032444;28;45325;-65
2022/10/12 12:31:12;;;;;;;;;13.33;12.00;;;;;;;;5035317;28;45468;-65
2022/10/12 12:33:40;;;;;;;;;12.00;11.33;;;;;;;;5029634;28;45665;-66
2022/10/12 12:36:08;;;;;;;;;12.33;10.67;;;;;;;;5026119;28;45614;-65
2022/10/12 12:38:45;;;;;;;;;11.67;11.67;;;;;;;;5041206;28;45680;-66
2022/10/12 12:41:12;;;;;;;;;17.00;14.00;;;;;;;;5033859;28;45526;-66
2022/10/12 12:43:43;;;;;;;;;9.67;9.00;;;;;;;;5022247;28;45551;-66
2022/10/12 12:46:10;;;;;;;;;16.33;12.67;;;;;;;;5034164;28;45390;-67
2022/10/12 12:48:38;;;;;;;;;15.33;13.00;;;;;;;;5037625;28;45370;-67
2022/10/12 12:51:12;;;;;;;;;14.00;12.00;;;;;;;;5037724;28;46964;-67
2022/10/12 12:53:41;;;;;;;;;16.00;13.67;;;;;;;;5029569;28;45913;-65
2022/10/12 12:56:14;;;;;;;;;12.33;11.33;;;;;;;;5025964;28;45704;-65
2022/10/12 12:59:00;;;;;;;;;11.00;11.00;;;;;;;;5024664;28;45487;-66
2022/10/12 13:01:37;;;;;;;;;12.33;11.00;;;;;;;;5026568;28;45580;-67
2022/10/12 13:04:02;;;;;;;;;13.67;10.00;;;;;;;;5032428;28;45513;-65
2022/10/12 13:06:46;;;;;;;;;7.33;6.67;;;;;;;;5037551;28;45489;-66
2022/10/12 13:09:32;;;;;;;;;9.67;9.33;;;;;;;;5036320;28;45359;-65
2022/10/12 13:12:00;;;;;;;;;7.00;6.00;;;;;;;;5037106;28;46318;-65
2022/10/12 13:14:34;;;;;;;;;12.33;10.00;;;;;;;;5038519;28;45372;-66
2022/10/12 13:17:02;;;;;;;;;11.33;9.00;;;;;;;;5035489;28;45484;-66
2022/10/12 13:19:28;;;;;;;;;9.00;8.67;;;;;;;;5028602;28;45342;-66
2022/10/12 13:21:54;;;;;;;;;10.67;8.00;;;;;;;;5025981;28;46197;-66
2022/10/12 13:24:22;;;;;;;;;9.00;7.33;;;;;;;;5039814;28;45562;-66
2022/10/12 13:26:53;;;;;;;;;11.67;7.33;;;;;;;;5036200;28;45182;-66
2022/10/12 13:29:26;;;;;;;;;9.00;7.00;;;;;;;;5037276;28;45569;-66
2022/10/12 13:31:54;;;;;;;;;11.67;9.67;;;;;;;;5031004;28;45804;-66
2022/10/12 13:34:26;;;;;;;;;7.00;7.00;;;;;;;;5032836;28;45413;-66
2022/10/12 13:36:54;;;;;;;;;9.33;9.33;;;;;;;;5033373;28;45372;-66
2022/10/12 13:39:20;;;;;;;;;8.33;8.33;;;;;;;;5038222;28;45581;-64
2022/10/12 13:41:47;;;;;;;;;8.67;8.67;;;;;;;;5027695;28;45509;-66
2022/10/12 13:44:33;;;;;;;;;10.67;9.00;;;;;;;;5026341;28;45498;-66
2022/10/12 13:47:00;;;;;;;;;12.00;10.00;;;;;;;;5034876;28;45785;-66
2022/10/12 13:49:26;;;;;;;;;10.67;10.33;;;;;;;;5034833;28;45178;-66
2022/10/12 13:51:53;;;;;;;;;10.33;9.33;;;;;;;;5039585;28;45658;-65
2022/10/12 13:54:21;;;;;;;;;7.67;7.00;;;;;;;;5048918;28;45478;-65
2022/10/12 13:56:47;;;;;;;;;7.33;7.33;;;;;;;;5038958;28;46823;-65
2022/10/12 13:59:15;;;;;;;;;9.00;8.00;;;;;;;;5036109;28;45352;-66
2022/10/12 14:01:51;;;;;;;;;9.00;8.00;;;;;;;;5031094;28;45508;-66
2022/10/12 14:04:16;;;;;;;;;11.00;8.00;;;;;;;;5034646;28;45775;-66
2022/10/12 14:06:45;;;;;;;;;9.33;6.33;;;;;;;;5035131;28;45426;-66
2022/10/12 14:09:13;;;;;;;;;10.67;7.67;;;;;;;;5036358;28;45719;-68
2022/10/12 14:11:39;;;;;;;;;5.67;5.67;;;;;;;;5035855;28;45369;-68
2022/10/12 14:14:05;;;;;;;;;6.33;6.33;;;;;;;;5039211;28;45341;-68
2022/10/12 14:16:30;;;;;;;;;9.67;7.00;;;;;;;;5041288;28;45396;-68
2022/10/12 14:19:15;;;;;;;;;8.00;8.00;;;;;;;;5040868;28;45502;-68
2022/10/12 14:21:44;;;;;;;;;8.00;8.00;;;;;;;;5041022;28;45507;-68
2022/10/12 14:24:10;;;;;;;;;9.00;8.00;;;;;;;;5041079;28;45384;-68
2022/10/12 14:26:35;;;;;;;;;8.00;8.00;;;;;;;;5041120;28;45515;-68
2022/10/12 14:29:20;;;;;;;;;7.67;7.67;;;;;;;;5040715;28;45413;-68
2022/10/12 14:31:47;;;;;;;;;4.00;4.00;;;;;;;;5040066;28;46357;-69
2022/10/12 14:34:43;;;;;;;;;7.33;7.33;;;;;;;;5040109;28;45348;-68
2022/10/12 14:37:12;;;;;;;;;7.33;7.33;;;;;;;;5020284;28;45610;-68
2022/10/12 14:39:37;;;;;;;;;7.67;6.00;;;;;;;;5040677;28;45475;-67
2022/10/12 14:42:14;;;;;;;;;8.00;7.00;;;;;;;;5040117;28;46362;-68
2022/10/12 14:44:42;;;;;;;;;5.33;5.00;;;;;;;;5038653;28;45530;-68
2022/10/12 14:47:33;;;;;;;;;6.67;6.67;;;;;;;;5036778;28;45301;-67
2022/10/12 14:49:59;;;;;;;;;7.33;5.67;;;;;;;;5034338;28;45627;-68
2022/10/12 14:52:29;;;;;;;;;8.00;7.67;;;;;;;;5038708;28;46723;-67
2022/10/12 14:54:55;;;;;;;;;7.67;6.00;;;;;;;;5037095;28;45384;-67
2022/10/12 14:57:22;;;;;;;;;9.33;8.67;;;;;;;;5039395;28;45441;-67
2022/10/12 14:59:47;;;;;;;;;7.00;7.00;;;;;;;;5038713;28;45543;-68
2022/10/12 15:02:15;;;;;;;;;6.00;6.00;;;;;;;;5039502;28;45534;-68
2022/10/12 15:04:40;;;;;;;;;9.00;7.33;;;;;;;;5040345;28;45336;-68
2022/10/12 15:07:12;;;;;;;;;11.67;8.00;;;;;;;;5039193;28;45384;-68
2022/10/12 15:09:37;;;;;;;;;6.33;6.33;;;;;;;;5038037;28;45470;-67
2022/10/12 15:12:03;;;;;;;;;7.67;6.00;;;;;;;;5039189;28;45572;-67
2022/10/12 15:14:28;;;;;;;;;11.33;6.67;;;;;;;;5038797;28;45434;-68
2022/10/12 15:16:53;;;;;;;;;7.00;6.00;;;;;;;;5039915;28;45376;-69
2022/10/12 15:19:18;;;;;;;;;6.00;5.67;;;;;;;;5039688;28;45538;-68
2022/10/12 15:21:43;;;;;;;;;6.00;6.00;;;;;;;;5039541;28;45545;-68
2022/10/12 15:24:14;;;;;;;;;9.00;8.33;;;;;;;;5039379;28;45405;-69
2022/10/12 15:26:39;;;;;;;;;9.67;7.33;;;;;;;;5039961;28;45435;-68
2022/10/12 15:29:04;;;;;;;;;9.67;8.00;;;;;;;;5035296;28;45408;-68
2022/10/12 15:31:29;;;;;;;;;11.00;7.33;;;;;;;;5032727;28;46262;-68
2022/10/12 15:33:55;;;;;;;;;12.33;12.33;;;;;;;;5029630;28;45408;-68
2022/10/12 15:36:20;;;;;;;;;7.33;7.33;;;;;;;;5038566;28;45340;-69
2022/10/12 15:38:45;;;;;;;;;15.33;8.67;;;;;;;;5030078;28;45554;-68
2022/10/12 15:41:15;;;;;;;;;7.00;7.00;;;;;;;;5033313;28;46129;-68
2022/10/12 15:43:41;;;;;;;;;13.67;8.67;;;;;;;;5037967;28;45438;-68
2022/10/12 15:46:08;;;;;;;;;7.67;6.00;;;;;;;;5034511;28;45496;-68
2022/10/12 15:48:33;;;;;;;;;8.00;7.67;;;;;;;;5030562;28;45448;-68
2022/10/12 15:50:58;;;;;;;;;7.00;6.67;;;;;;;;5034107;28;45475;-68
2022/10/12 15:53:24;;;;;;;;;7.67;7.67;;;;;;;;5029806;28;45339;-68
2022/10/12 15:55:50;;;;;;;;;6.00;6.00;;;;;;;;5033454;28;45378;-68
2022/10/12 15:58:15;;;;;;;;;8.67;8.67;;;;;;;;5029910;28;45312;-68
2022/10/12 16:00:40;;;;;;;;;8.00;6.00;;;;;;;;5037741;28;46030;-68
2022/10/12 16:03:05;;;;;;;;;8.67;7.67;;;;;;;;5034027;28;45449;-69
2022/10/12 16:05:32;;;;;;;;;9.00;7.00;;;;;;;;5039402;28;45746;-68
2022/10/12 16:07:58;;;;;;;;;9.67;8.33;;;;;;;;5030148;28;45334;-68
2022/10/12 16:10:25;;;;;;;;;9.67;8.33;;;;;;;;5033920;28;45389;-68
2022/10/12 16:12:52;;;;;;;;;7.33;7.00;;;;;;;;5033490;28;45416;-67
2022/10/12 16:15:20;;;;;;;;;10.67;9.00;;;;;;;;5035680;28;45407;-67
2022/10/12 16:17:45;;;;;;;;;8.33;8.33;;;;;;;;5033999;28;45610;-68
2022/10/12 16:20:11;;;;;;;;;9.00;9.00;;;;;;;;5035565;28;45395;-68
2022/10/12 16:22:36;;;;;;;;;9.00;7.00;;;;;;;;5035790;28;45359;-70
2022/10/12 16:25:03;;;;;;;;;7.00;6.67;;;;;;;;5016297;28;45451;-68
2022/10/12 16:27:28;;;;;;;;;9.67;7.67;;;;;;;;5036964;28;45535;-68
2022/10/12 16:29:54;;;;;;;;;8.67;8.67;;;;;;;;5032162;28;47886;-67
2022/10/12 16:32:19;;;;;;;;;8.67;7.67;;;;;;;;5034551;28;45866;-69
2022/10/12 16:34:44;;;;;;;;;10.00;9.67;;;;;;;;5036890;28;45575;-67
2022/10/12 16:37:09;;;;;;;;;10.33;9.33;;;;;;;;5039245;28;45453;-68
2022/10/12 16:39:35;;;;;;;;;11.00;8.00;;;;;;;;5045301;28;46274;-66
2022/10/12 16:42:00;;;;;;;;;11.67;11.00;;;;;;;;5032925;28;45675;-68
2022/10/12 16:44:25;;;;;;;;;11.67;10.00;;;;;;;;5049219;28;45351;-68
2022/10/12 16:46:50;;;;;;;;;9.67;9.67;;;;;;;;5041931;28;45481;-66
2022/10/12 16:49:15;;;;;;;;;10.33;9.00;;;;;;;;5031109;28;45538;-65
2022/10/12 16:51:41;;;;;;;;;12.67;11.00;;;;;;;;5037646;28;45436;-67
2022/10/12 16:54:06;;;;;;;;;11.33;8.33;;;;;;;;5037891;28;45425;-67
2022/10/12 16:56:31;;;;;;;;;11.00;9.00;;;;;;;;5019869;28;45674;-67
2022/10/12 16:58:57;;;;;;;;;7.67;7.67;;;;;;;;5037035;28;45443;-67
2022/10/12 17:01:22;;;;;;;;;12.67;12.00;;;;;;;;5036776;28;45387;-67
2022/10/12 17:03:47;;;;;;;;;15.33;13.00;;;;;;;;5036478;28;45622;-67
2022/10/12 17:06:12;;;;;;;;;19.00;18.33;;;;;;;;5026781;28;46142;-67
2022/10/12 17:08:38;;;;;;;;;23.00;17.33;;;;;;;;5036805;28;47184;-67
2022/10/12 17:11:10;;;;;;;;;20.00;16.67;;;;;;;;5031235;28;45841;-67
2022/10/12 17:13:36;;;;;;;;;21.33;16.67;;;;;;;;5040214;28;45495;-67
2022/10/12 17:16:48;;;;;;;;;15.33;14.00;;;;;;;;5039775;28;45471;-67
2022/10/12 17:18:48;;;;;;;;;17.67;16.67;;;;;;;;5030628;28;45391;-66
2022/10/12 17:21:13;;;;;;;;;29.67;21.33;;;;;;;;5034629;28;45616;-67
2022/10/12 17:23:38;;;;;;;;;19.00;15.67;;;;;;;;5043263;28;45871;-68
2022/10/12 17:26:03;;;;;;;;;21.00;19.00;;;;;;;;5038331;28;45849;-67
2022/10/12 17:28:28;;;;;;;;;25.33;22.00;;;;;;;;5039169;28;45722;-66
2022/10/12 17:30:54;;;;;;;;;24.33;21.33;;;;;;;;5043151;28;45898;-68
2022/10/12 17:33:19;;;;;;;;;24.67;21.67;;;;;;;;5037943;28;45344;-66
2022/10/12 17:35:44;;;;;;;;;23.67;22.00;;;;;;;;5038618;28;45529;-67
2022/10/12 17:38:09;;;;;;;;;29.67;25.33;;;;;;;;5039650;28;45402;-66
2022/10/12 17:40:37;;;;;;;;;27.67;24.33;;;;;;;;5040892;28;45462;-66
2022/10/12 17:43:02;;;;;;;;;26.33;26.33;;;;;;;;5040383;28;45496;-66
2022/10/12 17:45:27;;;;;;;;;36.67;30.33;;;;;;;;5052318;28;45423;-67
2022/10/12 17:47:53;;;;;;;;;35.00;30.00;;;;;;;;5039474;28;45463;-67
2022/10/12 17:50:18;;;;;;;;;35.33;29.67;;;;;;;;5044159;28;45469;-66
2022/10/12 17:52:43;;;;;;;;;30.33;29.33;;;;;;;;5050071;28;45405;-67
2022/10/12 17:55:08;;;;;;;;;31.00;28.33;;;;;;;;5047785;28;46088;-67
2022/10/12 17:57:33;;;;;;;;;35.67;31.00;;;;;;;;5042520;28;46112;-62
2022/10/12 17:59:59;;;;;;;;;36.00;30.33;;;;;;;;5025353;28;45513;-69
2022/10/12 18:02:24;;;;;;;;;34.67;28.33;;;;;;;;5041750;28;45573;-67
2022/10/12 18:04:49;;;;;;;;;38.00;34.00;;;;;;;;5048235;28;45578;-67
2022/10/12 18:07:14;;;;;;;;;31.00;28.33;;;;;;;;5046522;28;45545;-67
2022/10/12 18:09:40;;;;;;;;;37.67;31.00;;;;;;;;5047122;28;45511;-68
2022/10/12 18:12:05;;;;;;;;;37.33;29.33;;;;;;;;5051609;28;45271;-68
2022/10/12 18:14:30;;;;;;;;;37.33;33.67;;;;;;;;5052470;28;45529;-68
2022/10/12 18:16:57;;;;;;;;;38.33;30.00;;;;;;;;5044714;28;46042;-68
2022/10/12 18:19:22;;;;;;;;;30.33;30.33;;;;;;;;5036271;28;46011;-68
2022/10/12 18:21:48;;;;;;;;;35.67;28.67;;;;;;;;5049028;28;45459;-70
2022/10/12 18:24:16;;;;;;;;;35.00;31.33;;;;;;;;5045817;28;45487;-68
2022/10/12 18:26:43;;;;;;;;;35.67;32.67;;;;;;;;5037486;28;46362;-68
2022/10/12 18:29:08;;;;;;;;;32.00;28.33;;;;;;;;5040293;28;45504;-70
2022/10/12 18:31:33;;;;;;;;;32.67;30.67;;;;;;;;5009785;28;45462;-68
2022/10/12 18:33:58;;;;;;;;;33.00;29.00;;;;;;;;5025514;28;45556;-68
2022/10/12 18:36:24;;;;;;;;;37.00;29.00;;;;;;;;5035864;28;45593;-64
2022/10/12 18:38:49;;;;;;;;;34.00;31.00;;;;;;;;5038033;28;45581;-63
2022/10/12 18:41:16;;;;;;;;;31.00;28.33;;;;;;;;5041551;28;45525;-64
2022/10/12 18:43:42;;;;;;;;;27.67;25.33;;;;;;;;5036907;28;45527;-64
2022/10/12 18:46:08;;;;;;;;;34.33;26.00;;;;;;;;5042778;28;46042;-64
2022/10/12 18:48:33;;;;;;;;;38.00;30.67;;;;;;;;5038119;28;45822;-62
2022/10/12 18:51:06;;;;;;;;;39.00;31.00;;;;;;;;5038153;28;45347;-62
2022/10/12 18:53:32;;;;;;;;;42.33;30.67;;;;;;;;5028859;28;45483;-63
2022/10/12 18:55:59;;;;;;;;;28.33;24.33;;;;;;;;5034986;28;46129;-63
2022/10/12 18:58:24;;;;;;;;;37.67;30.67;;;;;;;;5020541;28;46401;-63